sensor_id;sensor_type;location;lat;lon;timestamp;temperature;humidity
15115;DHT22;7658;51.456;7.622;2022-11-25T00:01:20;7.00;99.90
15115;DHT22;7658;51.456;7.622;2022-11-25T00:03:47;7.00;99.90
15115;DHT22;7658;51.456;7.622;2022-11-25T00:06:20;7.00;99.90
15115;DHT22;7658;51.456;7.622;2022-11-25T00:08:48;7.00;99.90
15115;DHT22;7658;51.456;7.622;2022-11-25T00:11:15;7.00;99.90
15115;DHT22;7658;51.456;7.622;2022-11-25T00:13:43;7.00;99.90
15115;DHT22;7658;51.456;7.622;2022-11-25T00:16:14;7.00;99.90
15115;DHT22;7658;51.456;7.622;2022-11-25T00:18:47;7.00;99.90
15115;DHT22;7658;51.456;7.622;2022-11-25T00:21:16;7.00;99.90
15115;DHT22;7658;51.456;7.622;2022-11-25T00:23:42;7.00;99.90
15115;DHT22;7658;51.456;7.622;2022-11-25T00:26:13;7.10;99.90
15115;DHT22;7658;51.456;7.622;2022-11-25T00:28:41;7.20;99.90
15115;DHT22;7658;51.456;7.622;2022-11-25T00:31:12;7.20;99.90
15115;DHT22;7658;51.456;7.622;2022-11-25T00:33:39;7.40;99.90
15115;DHT22;7658;51.456;7.622;2022-11-25T00:36:10;7.50;99.90
15115;DHT22;7658;51.456;7.622;2022-11-25T00:38:38;7.60;99.90
15115;DHT22;7658;51.456;7.622;2022-11-25T00:41:04;7.50;99.90
15115;DHT22;7658;51.456;7.622;2022-11-25T00:43:48;7.60;99.90
15115;DHT22;7658;51.456;7.622;2022-11-25T00:46:33;7.60;99.90
15115;DHT22;7658;51.456;7.622;2022-11-25T00:48:58;7.70;99.90
15115;DHT22;7658;51.456;7.622;2022-11-25T00:51:24;7.70;99.90
15115;DHT22;7658;51.456;7.622;2022-11-25T00:53:50;7.90;99.90
15115;DHT22;7658;51.456;7.622;2022-11-25T00:56:16;8.00;99.90
15115;DHT22;7658;51.456;7.622;2022-11-25T00:58:42;8.00;99.90
15115;DHT22;7658;51.456;7.622;2022-11-25T01:01:09;8.10;99.90
15115;DHT22;7658;51.456;7.622;2022-11-25T01:03:35;8.10;99.90
15115;DHT22;7658;51.456;7.622;2022-11-25T01:06:06;8.10;99.90
15115;DHT22;7658;51.456;7.622;2022-11-25T01:08:33;8.10;99.90
15115;DHT22;7658;51.456;7.622;2022-11-25T01:11:00;8.10;99.90
15115;DHT22;7658;51.456;7.622;2022-11-25T01:13:27;8.10;99.90
15115;DHT22;7658;51.456;7.622;2022-11-25T01:15:52;8.10;99.90
15115;DHT22;7658;51.456;7.622;2022-11-25T01:18:18;8.20;99.90
15115;DHT22;7658;51.456;7.622;2022-11-25T01:20:44;8.20;99.90
15115;DHT22;7658;51.456;7.622;2022-11-25T01:23:10;8.30;99.90
15115;DHT22;7658;51.456;7.622;2022-11-25T01:25:36;8.30;99.90
15115;DHT22;7658;51.456;7.622;2022-11-25T01:28:03;8.30;99.90
15115;DHT22;7658;51.456;7.622;2022-11-25T01:30:28;8.30;99.90
15115;DHT22;7658;51.456;7.622;2022-11-25T01:32:54;8.30;99.90
15115;DHT22;7658;51.456;7.622;2022-11-25T01:35:20;8.30;99.90
15115;DHT22;7658;51.456;7.622;2022-11-25T01:37:46;8.30;99.90
15115;DHT22;7658;51.456;7.622;2022-11-25T01:40:12;8.40;99.90
15115;DHT22;7658;51.456;7.622;2022-11-25T01:42:42;8.40;99.90
15115;DHT22;7658;51.456;7.622;2022-11-25T01:45:34;8.40;99.90
15115;DHT22;7658;51.456;7.622;2022-11-25T01:48:08;8.40;99.90
15115;DHT22;7658;51.456;7.622;2022-11-25T01:50:35;8.50;99.90
15115;DHT22;7658;51.456;7.622;2022-11-25T01:53:03;8.50;99.90
15115;DHT22;7658;51.456;7.622;2022-11-25T01:55:32;8.50;99.90
15115;DHT22;7658;51.456;7.622;2022-11-25T01:58:15;8.50;99.90
15115;DHT22;7658;51.456;7.622;2022-11-25T02:00:42;8.40;99.90
15115;DHT22;7658;51.456;7.622;2022-11-25T02:03:21;8.40;99.90
15115;DHT22;7658;51.456;7.622;2022-11-25T02:08:32;8.30;99.90
15115;DHT22;7658;51.456;7.622;2022-11-25T02:11:00;8.40;99.90
15115;DHT22;7658;51.456;7.622;2022-11-25T02:13:27;8.30;99.90
15115;DHT22;7658;51.456;7.622;2022-11-25T02:15:53;8.40;99.90
15115;DHT22;7658;51.456;7.622;2022-11-25T02:18:19;8.30;99.90
15115;DHT22;7658;51.456;7.622;2022-11-25T02:20:45;8.30;99.90
15115;DHT22;7658;51.456;7.622;2022-11-25T02:25:51;8.30;99.90
15115;DHT22;7658;51.456;7.622;2022-11-25T02:28:25;8.30;99.90
15115;DHT22;7658;51.456;7.622;2022-11-25T02:30:51;8.30;99.90
15115;DHT22;7658;51.456;7.622;2022-11-25T02:33:18;8.20;99.90
15115;DHT22;7658;51.456;7.622;2022-11-25T02:35:51;8.20;99.90
15115;DHT22;7658;51.456;7.622;2022-11-25T02:39:10;8.20;99.90
15115;DHT22;7658;51.456;7.622;2022-11-25T02:41:21;8.20;99.90
15115;DHT22;7658;51.456;7.622;2022-11-25T02:43:49;8.10;99.90
15115;DHT22;7658;51.456;7.622;2022-11-25T02:46:20;8.10;99.90
15115;DHT22;7658;51.456;7.622;2022-11-25T02:48:46;8.10;99.90
15115;DHT22;7658;51.456;7.622;2022-11-25T02:51:14;8.10;99.90
15115;DHT22;7658;51.456;7.622;2022-11-25T02:53:41;8.10;99.90
15115;DHT22;7658;51.456;7.622;2022-11-25T02:56:07;8.20;99.90
15115;DHT22;7658;51.456;7.622;2022-11-25T02:58:34;8.20;99.90
15115;DHT22;7658;51.456;7.622;2022-11-25T03:01:00;8.30;99.90
15115;DHT22;7658;51.456;7.622;2022-11-25T03:03:25;8.30;99.90
15115;DHT22;7658;51.456;7.622;2022-11-25T03:05:51;8.30;99.90
15115;DHT22;7658;51.456;7.622;2022-11-25T03:08:17;8.30;99.90
15115;DHT22;7658;51.456;7.622;2022-11-25T03:10:43;8.30;99.90
15115;DHT22;7658;51.456;7.622;2022-11-25T03:13:09;8.30;99.90
15115;DHT22;7658;51.456;7.622;2022-11-25T03:15:35;8.30;99.90
15115;DHT22;7658;51.456;7.622;2022-11-25T03:18:03;8.30;99.90
15115;DHT22;7658;51.456;7.622;2022-11-25T03:20:29;8.30;99.90
15115;DHT22;7658;51.456;7.622;2022-11-25T03:22:55;8.30;99.90
15115;DHT22;7658;51.456;7.622;2022-11-25T03:25:21;8.30;99.90
15115;DHT22;7658;51.456;7.622;2022-11-25T03:27:47;8.30;99.90
15115;DHT22;7658;51.456;7.622;2022-11-25T03:30:16;8.40;99.90
15115;DHT22;7658;51.456;7.622;2022-11-25T03:32:42;8.30;99.90
15115;DHT22;7658;51.456;7.622;2022-11-25T03:35:10;8.40;99.90
15115;DHT22;7658;51.456;7.622;2022-11-25T03:37:36;8.40;99.90
15115;DHT22;7658;51.456;7.622;2022-11-25T03:40:02;8.30;99.90
15115;DHT22;7658;51.456;7.622;2022-11-25T03:42:28;8.30;99.90
15115;DHT22;7658;51.456;7.622;2022-11-25T03:44:54;8.30;99.90
15115;DHT22;7658;51.456;7.622;2022-11-25T03:47:20;8.40;99.90
15115;DHT22;7658;51.456;7.622;2022-11-25T03:49:46;8.30;99.90
15115;DHT22;7658;51.456;7.622;2022-11-25T03:52:12;8.40;99.90
15115;DHT22;7658;51.456;7.622;2022-11-25T03:54:37;8.40;99.90
15115;DHT22;7658;51.456;7.622;2022-11-25T03:57:03;8.40;99.90
15115;DHT22;7658;51.456;7.622;2022-11-25T03:59:29;8.40;99.90
15115;DHT22;7658;51.456;7.622;2022-11-25T04:01:55;8.40;99.90
15115;DHT22;7658;51.456;7.622;2022-11-25T04:04:20;8.40;99.90
15115;DHT22;7658;51.456;7.622;2022-11-25T04:06:46;8.40;99.90
15115;DHT22;7658;51.456;7.622;2022-11-25T04:09:12;8.40;99.90
15115;DHT22;7658;51.456;7.622;2022-11-25T04:11:38;8.40;99.90
15115;DHT22;7658;51.456;7.622;2022-11-25T04:14:22;8.40;99.90
15115;DHT22;7658;51.456;7.622;2022-11-25T04:16:48;8.40;99.90
15115;DHT22;7658;51.456;7.622;2022-11-25T04:19:14;8.40;99.90
15115;DHT22;7658;51.456;7.622;2022-11-25T04:21:40;8.30;99.90
15115;DHT22;7658;51.456;7.622;2022-11-25T04:24:07;8.30;99.90
15115;DHT22;7658;51.456;7.622;2022-11-25T04:26:33;8.30;99.90
15115;DHT22;7658;51.456;7.622;2022-11-25T04:28:59;8.20;99.90
15115;DHT22;7658;51.456;7.622;2022-11-25T04:31:24;8.20;99.90
15115;DHT22;7658;51.456;7.622;2022-11-25T04:33:50;8.20;99.90
15115;DHT22;7658;51.456;7.622;2022-11-25T04:36:16;8.20;99.90
15115;DHT22;7658;51.456;7.622;2022-11-25T04:38:42;8.10;99.90
15115;DHT22;7658;51.456;7.622;2022-11-25T04:41:08;8.20;99.90
15115;DHT22;7658;51.456;7.622;2022-11-25T04:43:34;8.10;99.90
15115;DHT22;7658;51.456;7.622;2022-11-25T04:46:00;8.20;99.90
15115;DHT22;7658;51.456;7.622;2022-11-25T04:48:26;8.30;99.90
15115;DHT22;7658;51.456;7.622;2022-11-25T04:50:53;8.30;99.90
15115;DHT22;7658;51.456;7.622;2022-11-25T04:53:19;8.30;99.90
15115;DHT22;7658;51.456;7.622;2022-11-25T04:55:45;8.30;99.90
15115;DHT22;7658;51.456;7.622;2022-11-25T04:58:11;8.30;99.90
15115;DHT22;7658;51.456;7.622;2022-11-25T05:00:37;8.30;99.90
15115;DHT22;7658;51.456;7.622;2022-11-25T05:03:03;8.20;99.90
15115;DHT22;7658;51.456;7.622;2022-11-25T05:05:29;8.20;99.90
15115;DHT22;7658;51.456;7.622;2022-11-25T05:07:55;8.10;99.90
15115;DHT22;7658;51.456;7.622;2022-11-25T05:10:22;8.00;99.90
15115;DHT22;7658;51.456;7.622;2022-11-25T05:12:48;8.00;99.90
15115;DHT22;7658;51.456;7.622;2022-11-25T05:15:14;7.90;99.90
15115;DHT22;7658;51.456;7.622;2022-11-25T05:17:40;7.90;99.90
15115;DHT22;7658;51.456;7.622;2022-11-25T05:20:06;8.00;99.90
15115;DHT22;7658;51.456;7.622;2022-11-25T05:22:33;8.00;99.90
15115;DHT22;7658;51.456;7.622;2022-11-25T05:25:00;8.00;99.90
15115;DHT22;7658;51.456;7.622;2022-11-25T05:27:26;8.00;99.90
15115;DHT22;7658;51.456;7.622;2022-11-25T05:29:52;8.00;99.90
15115;DHT22;7658;51.456;7.622;2022-11-25T05:32:18;8.00;99.90
15115;DHT22;7658;51.456;7.622;2022-11-25T05:34:44;8.00;99.90
15115;DHT22;7658;51.456;7.622;2022-11-25T05:37:12;8.00;99.90
15115;DHT22;7658;51.456;7.622;2022-11-25T05:39:38;8.00;99.90
15115;DHT22;7658;51.456;7.622;2022-11-25T05:42:03;8.00;99.90
15115;DHT22;7658;51.456;7.622;2022-11-25T05:44:29;8.00;99.90
15115;DHT22;7658;51.456;7.622;2022-11-25T05:46:55;8.00;99.90
15115;DHT22;7658;51.456;7.622;2022-11-25T05:49:21;8.00;99.90
15115;DHT22;7658;51.456;7.622;2022-11-25T05:51:47;8.10;99.90
15115;DHT22;7658;51.456;7.622;2022-11-25T05:54:13;8.10;99.90
15115;DHT22;7658;51.456;7.622;2022-11-25T05:56:39;8.00;99.90
15115;DHT22;7658;51.456;7.622;2022-11-25T05:59:05;8.10;99.90
15115;DHT22;7658;51.456;7.622;2022-11-25T06:01:32;8.10;99.90
15115;DHT22;7658;51.456;7.622;2022-11-25T06:04:02;8.10;99.90
15115;DHT22;7658;51.456;7.622;2022-11-25T06:06:28;8.00;99.90
15115;DHT22;7658;51.456;7.622;2022-11-25T06:08:54;8.00;99.90
15115;DHT22;7658;51.456;7.622;2022-11-25T06:11:20;8.00;99.90
15115;DHT22;7658;51.456;7.622;2022-11-25T06:13:46;8.10;99.90
15115;DHT22;7658;51.456;7.622;2022-11-25T06:16:16;8.10;99.90
15115;DHT22;7658;51.456;7.622;2022-11-25T06:18:42;8.20;99.90
15115;DHT22;7658;51.456;7.622;2022-11-25T06:21:08;8.10;99.90
15115;DHT22;7658;51.456;7.622;2022-11-25T06:23:35;8.10;99.90
15115;DHT22;7658;51.456;7.622;2022-11-25T06:26:11;8.10;99.90
15115;DHT22;7658;51.456;7.622;2022-11-25T06:28:37;8.10;99.90
15115;DHT22;7658;51.456;7.622;2022-11-25T06:31:08;8.00;99.90
15115;DHT22;7658;51.456;7.622;2022-11-25T06:33:34;8.00;99.90
15115;DHT22;7658;51.456;7.622;2022-11-25T06:36:05;8.00;99.90
15115;DHT22;7658;51.456;7.622;2022-11-25T06:38:31;8.00;99.90
15115;DHT22;7658;51.456;7.622;2022-11-25T06:41:04;8.00;99.90
15115;DHT22;7658;51.456;7.622;2022-11-25T06:43:30;8.00;99.90
15115;DHT22;7658;51.456;7.622;2022-11-25T06:46:08;7.90;99.90
15115;DHT22;7658;51.456;7.622;2022-11-25T06:48:35;8.00;99.90
15115;DHT22;7658;51.456;7.622;2022-11-25T06:51:04;7.90;99.90
15115;DHT22;7658;51.456;7.622;2022-11-25T06:53:31;7.90;99.90
15115;DHT22;7658;51.456;7.622;2022-11-25T06:58:38;7.80;99.90
15115;DHT22;7658;51.456;7.622;2022-11-25T07:01:14;7.80;99.90
15115;DHT22;7658;51.456;7.622;2022-11-25T07:03:41;7.70;99.90
15115;DHT22;7658;51.456;7.622;2022-11-25T07:06:08;7.70;99.90
15115;DHT22;7658;51.456;7.622;2022-11-25T07:08:35;7.60;99.90
15115;DHT22;7658;51.456;7.622;2022-11-25T07:11:21;7.60;99.90
15115;DHT22;7658;51.456;7.622;2022-11-25T07:13:51;7.50;99.90
15115;DHT22;7658;51.456;7.622;2022-11-25T07:16:17;7.50;99.90
15115;DHT22;7658;51.456;7.622;2022-11-25T07:18:42;7.50;99.90
15115;DHT22;7658;51.456;7.622;2022-11-25T07:21:15;7.40;99.90
15115;DHT22;7658;51.456;7.622;2022-11-25T07:23:42;7.40;99.90
15115;DHT22;7658;51.456;7.622;2022-11-25T07:26:20;7.40;99.90
15115;DHT22;7658;51.456;7.622;2022-11-25T07:28:47;7.40;99.90
15115;DHT22;7658;51.456;7.622;2022-11-25T07:31:16;7.40;99.90
15115;DHT22;7658;51.456;7.622;2022-11-25T07:33:42;7.40;99.90
15115;DHT22;7658;51.456;7.622;2022-11-25T07:36:11;7.40;99.90
15115;DHT22;7658;51.456;7.622;2022-11-25T07:38:38;7.40;99.90
15115;DHT22;7658;51.456;7.622;2022-11-25T07:43:30;7.40;99.90
15115;DHT22;7658;51.456;7.622;2022-11-25T07:45:55;7.40;99.90
15115;DHT22;7658;51.456;7.622;2022-11-25T07:48:21;7.30;99.90
15115;DHT22;7658;51.456;7.622;2022-11-25T07:50:47;7.40;99.90
15115;DHT22;7658;51.456;7.622;2022-11-25T07:53:14;7.40;99.90
15115;DHT22;7658;51.456;7.622;2022-11-25T07:55:40;7.30;99.90
15115;DHT22;7658;51.456;7.622;2022-11-25T07:58:06;7.40;99.90
15115;DHT22;7658;51.456;7.622;2022-11-25T08:00:32;7.40;99.90
15115;DHT22;7658;51.456;7.622;2022-11-25T08:02:57;7.40;99.90
15115;DHT22;7658;51.456;7.622;2022-11-25T08:05:23;7.40;99.90
15115;DHT22;7658;51.456;7.622;2022-11-25T08:07:49;7.50;99.90
15115;DHT22;7658;51.456;7.622;2022-11-25T08:10:14;7.50;99.90
15115;DHT22;7658;51.456;7.622;2022-11-25T08:12:40;7.50;99.90
15115;DHT22;7658;51.456;7.622;2022-11-25T08:15:06;7.40;99.90
15115;DHT22;7658;51.456;7.622;2022-11-25T08:17:32;7.50;99.90
15115;DHT22;7658;51.456;7.622;2022-11-25T08:19:58;7.50;99.90
15115;DHT22;7658;51.456;7.622;2022-11-25T08:22:23;7.50;99.90
15115;DHT22;7658;51.456;7.622;2022-11-25T08:24:49;7.40;99.90
15115;DHT22;7658;51.456;7.622;2022-11-25T08:27:15;7.50;99.90
15115;DHT22;7658;51.456;7.622;2022-11-25T08:29:40;7.50;99.90
15115;DHT22;7658;51.456;7.622;2022-11-25T08:32:06;7.50;99.90
15115;DHT22;7658;51.456;7.622;2022-11-25T08:34:33;7.50;99.90
15115;DHT22;7658;51.456;7.622;2022-11-25T08:36:59;7.50;99.90
15115;DHT22;7658;51.456;7.622;2022-11-25T08:39:25;7.50;99.90
15115;DHT22;7658;51.456;7.622;2022-11-25T08:41:51;7.60;99.90
15115;DHT22;7658;51.456;7.622;2022-11-25T08:44:16;7.60;99.90
15115;DHT22;7658;51.456;7.622;2022-11-25T08:46:42;7.60;99.90
15115;DHT22;7658;51.456;7.622;2022-11-25T08:49:10;7.60;99.90
15115;DHT22;7658;51.456;7.622;2022-11-25T08:51:36;7.70;99.90
15115;DHT22;7658;51.456;7.622;2022-11-25T08:54:04;7.70;99.90
15115;DHT22;7658;51.456;7.622;2022-11-25T08:56:30;7.80;99.90
15115;DHT22;7658;51.456;7.622;2022-11-25T08:58:56;7.80;99.90
15115;DHT22;7658;51.456;7.622;2022-11-25T09:01:22;7.90;99.90
15115;DHT22;7658;51.456;7.622;2022-11-25T09:03:51;7.90;99.90
15115;DHT22;7658;51.456;7.622;2022-11-25T09:06:18;7.90;99.90
15115;DHT22;7658;51.456;7.622;2022-11-25T09:08:44;8.00;99.90
15115;DHT22;7658;51.456;7.622;2022-11-25T09:11:11;8.00;99.90
15115;DHT22;7658;51.456;7.622;2022-11-25T09:13:37;8.00;99.90
15115;DHT22;7658;51.456;7.622;2022-11-25T09:16:03;7.90;99.90
15115;DHT22;7658;51.456;7.622;2022-11-25T09:18:29;8.00;99.90
15115;DHT22;7658;51.456;7.622;2022-11-25T09:20:57;8.00;99.90
15115;DHT22;7658;51.456;7.622;2022-11-25T09:23:24;8.10;99.90
15115;DHT22;7658;51.456;7.622;2022-11-25T09:25:52;8.20;99.90
15115;DHT22;7658;51.456;7.622;2022-11-25T09:28:18;8.20;99.90
15115;DHT22;7658;51.456;7.622;2022-11-25T09:30:44;8.30;99.90
15115;DHT22;7658;51.456;7.622;2022-11-25T09:33:10;8.30;99.90
15115;DHT22;7658;51.456;7.622;2022-11-25T09:35:35;8.30;99.90
15115;DHT22;7658;51.456;7.622;2022-11-25T09:38:01;8.30;99.90
15115;DHT22;7658;51.456;7.622;2022-11-25T09:40:50;8.30;99.90
15115;DHT22;7658;51.456;7.622;2022-11-25T09:52:47;8.50;99.90
15115;DHT22;7658;51.456;7.622;2022-11-25T09:55:10;8.60;99.90
15115;DHT22;7658;51.456;7.622;2022-11-25T10:03:01;8.90;99.90
15115;DHT22;7658;51.456;7.622;2022-11-25T10:05:37;9.00;99.90
15115;DHT22;7658;51.456;7.622;2022-11-25T10:08:14;9.00;99.90
15115;DHT22;7658;51.456;7.622;2022-11-25T10:13:19;9.10;99.90
15115;DHT22;7658;51.456;7.622;2022-11-25T10:15:48;9.20;99.90
15115;DHT22;7658;51.456;7.622;2022-11-25T10:18:22;9.30;99.90
15115;DHT22;7658;51.456;7.622;2022-11-25T10:20:50;9.40;99.90
15115;DHT22;7658;51.456;7.622;2022-11-25T10:23:23;9.50;99.90
15115;DHT22;7658;51.456;7.622;2022-11-25T10:25:54;9.60;99.90
15115;DHT22;7658;51.456;7.622;2022-11-25T10:28:32;9.70;99.90
15115;DHT22;7658;51.456;7.622;2022-11-25T10:31:19;9.70;99.90
15115;DHT22;7658;51.456;7.622;2022-11-25T10:33:51;9.90;99.90
15115;DHT22;7658;51.456;7.622;2022-11-25T10:38:58;10.10;99.90
15115;DHT22;7658;51.456;7.622;2022-11-25T10:41:31;10.20;99.90
15115;DHT22;7658;51.456;7.622;2022-11-25T10:43:58;10.30;99.90
15115;DHT22;7658;51.456;7.622;2022-11-25T10:55:33;10.50;99.90
15115;DHT22;7658;51.456;7.622;2022-11-25T10:58:29;10.60;99.90
15115;DHT22;7658;51.456;7.622;2022-11-25T11:01:06;10.80;99.90
15115;DHT22;7658;51.456;7.622;2022-11-25T11:03:37;10.70;99.90
15115;DHT22;7658;51.456;7.622;2022-11-25T11:06:03;10.50;99.90
15115;DHT22;7658;51.456;7.622;2022-11-25T11:08:39;10.40;99.90
15115;DHT22;7658;51.456;7.622;2022-11-25T11:11:18;10.20;99.90
15115;DHT22;7658;51.456;7.622;2022-11-25T11:13:45;10.00;99.90
15115;DHT22;7658;51.456;7.622;2022-11-25T11:16:32;10.00;99.90
15115;DHT22;7658;51.456;7.622;2022-11-25T11:18:58;10.10;99.90
15115;DHT22;7658;51.456;7.622;2022-11-25T11:21:32;10.10;99.90
15115;DHT22;7658;51.456;7.622;2022-11-25T11:23:59;10.20;99.90
15115;DHT22;7658;51.456;7.622;2022-11-25T11:26:30;10.20;99.90
15115;DHT22;7658;51.456;7.622;2022-11-25T11:28:58;10.30;99.90
15115;DHT22;7658;51.456;7.622;2022-11-25T11:31:36;10.60;99.90
15115;DHT22;7658;51.456;7.622;2022-11-25T11:34:14;10.70;99.90
15115;DHT22;7658;51.456;7.622;2022-11-25T11:36:54;10.90;99.90
15115;DHT22;7658;51.456;7.622;2022-11-25T11:50:50;11.00;99.90
15115;DHT22;7658;51.456;7.622;2022-11-25T11:56:05;10.60;99.90
15115;DHT22;7658;51.456;7.622;2022-11-25T12:04:21;10.30;99.90
15115;DHT22;7658;51.456;7.622;2022-11-25T12:09:39;10.40;99.90
15115;DHT22;7658;51.456;7.622;2022-11-25T12:12:13;10.50;99.90
15115;DHT22;7658;51.456;7.622;2022-11-25T12:14:52;10.60;99.90
15115;DHT22;7658;51.456;7.622;2022-11-25T12:17:43;10.60;99.90
15115;DHT22;7658;51.456;7.622;2022-11-25T12:20:29;10.60;99.90
15115;DHT22;7658;51.456;7.622;2022-11-25T12:23:03;10.50;99.90
15115;DHT22;7658;51.456;7.622;2022-11-25T12:25:35;10.50;99.90
15115;DHT22;7658;51.456;7.622;2022-11-25T12:28:14;10.70;99.90
15115;DHT22;7658;51.456;7.622;2022-11-25T12:36:16;10.80;99.90
15115;DHT22;7658;51.456;7.622;2022-11-25T12:39:03;10.90;99.90
15115;DHT22;7658;51.456;7.622;2022-11-25T12:41:52;11.00;99.90
15115;DHT22;7658;51.456;7.622;2022-11-25T12:46:50;11.10;99.90
15115;DHT22;7658;51.456;7.622;2022-11-25T13:00:20;10.70;99.90
15115;DHT22;7658;51.456;7.622;2022-11-25T13:03:03;10.60;99.90
15115;DHT22;7658;51.456;7.622;2022-11-25T13:05:58;10.60;99.90
15115;DHT22;7658;51.456;7.622;2022-11-25T13:16:38;10.40;99.90
15115;DHT22;7658;51.456;7.622;2022-11-25T13:19:08;10.40;99.90
15115;DHT22;7658;51.456;7.622;2022-11-25T13:22:03;10.40;99.90
15115;DHT22;7658;51.456;7.622;2022-11-25T13:24:32;10.60;99.90
15115;DHT22;7658;51.456;7.622;2022-11-25T13:26:59;10.70;99.90
15115;DHT22;7658;51.456;7.622;2022-11-25T13:32:03;10.60;99.90
15115;DHT22;7658;51.456;7.622;2022-11-25T13:34:33;10.50;99.90
15115;DHT22;7658;51.456;7.622;2022-11-25T13:37:01;10.50;99.90
15115;DHT22;7658;51.456;7.622;2022-11-25T13:39:32;10.50;99.90
15115;DHT22;7658;51.456;7.622;2022-11-25T13:44:54;10.40;99.90
15115;DHT22;7658;51.456;7.622;2022-11-25T13:47:36;10.40;99.90
15115;DHT22;7658;51.456;7.622;2022-11-25T13:50:05;10.40;99.90
15115;DHT22;7658;51.456;7.622;2022-11-25T13:52:48;10.50;99.90
15115;DHT22;7658;51.456;7.622;2022-11-25T13:57:48;10.50;99.90
15115;DHT22;7658;51.456;7.622;2022-11-25T14:24:37;10.40;99.90
15115;DHT22;7658;51.456;7.622;2022-11-25T14:27:13;10.40;99.90
15115;DHT22;7658;51.456;7.622;2022-11-25T14:29:41;10.30;99.90
15115;DHT22;7658;51.456;7.622;2022-11-25T14:32:17;10.10;99.90
15115;DHT22;7658;51.456;7.622;2022-11-25T14:35:07;10.00;99.90
15115;DHT22;7658;51.456;7.622;2022-11-25T14:40:13;9.90;99.90
15115;DHT22;7658;51.456;7.622;2022-11-25T14:42:42;9.90;99.90
15115;DHT22;7658;51.456;7.622;2022-11-25T14:45:38;9.90;99.90
15115;DHT22;7658;51.456;7.622;2022-11-25T14:48:19;9.80;99.90
15115;DHT22;7658;51.456;7.622;2022-11-25T14:50:57;9.80;99.90
15115;DHT22;7658;51.456;7.622;2022-11-25T14:53:22;9.70;99.90
15115;DHT22;7658;51.456;7.622;2022-11-25T14:55:48;9.70;99.90
15115;DHT22;7658;51.456;7.622;2022-11-25T14:58:14;9.70;99.90
15115;DHT22;7658;51.456;7.622;2022-11-25T15:00:54;9.60;99.90
15115;DHT22;7658;51.456;7.622;2022-11-25T15:03:23;9.60;99.90
15115;DHT22;7658;51.456;7.622;2022-11-25T15:05:57;9.60;99.90
15115;DHT22;7658;51.456;7.622;2022-11-25T15:08:25;9.60;99.90
15115;DHT22;7658;51.456;7.622;2022-11-25T15:10:54;9.60;99.90
15115;DHT22;7658;51.456;7.622;2022-11-25T15:15:50;9.50;99.90
15115;DHT22;7658;51.456;7.622;2022-11-25T15:18:19;9.50;99.90
15115;DHT22;7658;51.456;7.622;2022-11-25T15:20:56;9.40;99.90
15115;DHT22;7658;51.456;7.622;2022-11-25T15:23:30;9.40;99.90
15115;DHT22;7658;51.456;7.622;2022-11-25T15:25:59;9.40;99.90
15115;DHT22;7658;51.456;7.622;2022-11-25T15:28:36;9.30;99.90
15115;DHT22;7658;51.456;7.622;2022-11-25T15:31:07;9.30;99.90
15115;DHT22;7658;51.456;7.622;2022-11-25T15:33:34;9.30;99.90
15115;DHT22;7658;51.456;7.622;2022-11-25T15:36:02;9.30;99.90
15115;DHT22;7658;51.456;7.622;2022-11-25T15:41:01;9.30;99.90
15115;DHT22;7658;51.456;7.622;2022-11-25T15:43:29;9.30;99.90
15115;DHT22;7658;51.456;7.622;2022-11-25T15:46:00;9.30;99.90
15115;DHT22;7658;51.456;7.622;2022-11-25T15:48:33;9.30;99.90
15115;DHT22;7658;51.456;7.622;2022-11-25T15:54:04;9.30;99.90
15115;DHT22;7658;51.456;7.622;2022-11-25T15:56:34;9.20;99.90
15115;DHT22;7658;51.456;7.622;2022-11-25T15:59:01;9.20;99.90
15115;DHT22;7658;51.456;7.622;2022-11-25T16:01:27;9.20;99.90
15115;DHT22;7658;51.456;7.622;2022-11-25T16:04:16;9.10;99.90
15115;DHT22;7658;51.456;7.622;2022-11-25T16:06:56;9.10;99.90
15115;DHT22;7658;51.456;7.622;2022-11-25T16:09:24;9.10;99.90
15115;DHT22;7658;51.456;7.622;2022-11-25T16:11:52;9.10;99.90
15115;DHT22;7658;51.456;7.622;2022-11-25T16:14:27;9.00;99.90
15115;DHT22;7658;51.456;7.622;2022-11-25T16:17:02;9.00;99.90
15115;DHT22;7658;51.456;7.622;2022-11-25T16:19:33;9.00;99.90
15115;DHT22;7658;51.456;7.622;2022-11-25T16:22:03;9.00;99.90
15115;DHT22;7658;51.456;7.622;2022-11-25T16:24:50;9.00;99.90
15115;DHT22;7658;51.456;7.622;2022-11-25T16:27:23;9.00;99.90
15115;DHT22;7658;51.456;7.622;2022-11-25T16:29:57;9.00;99.90
15115;DHT22;7658;51.456;7.622;2022-11-25T16:32:33;9.00;99.90
15115;DHT22;7658;51.456;7.622;2022-11-25T16:35:15;8.90;99.90
15115;DHT22;7658;51.456;7.622;2022-11-25T16:37:43;8.90;99.90
15115;DHT22;7658;51.456;7.622;2022-11-25T16:40:11;8.90;99.90
15115;DHT22;7658;51.456;7.622;2022-11-25T16:42:37;9.00;99.90
15115;DHT22;7658;51.456;7.622;2022-11-25T16:45:14;9.00;99.90
15115;DHT22;7658;51.456;7.622;2022-11-25T16:47:42;9.00;99.90
15115;DHT22;7658;51.456;7.622;2022-11-25T16:50:12;9.00;99.90
15115;DHT22;7658;51.456;7.622;2022-11-25T16:52:38;9.00;99.90
15115;DHT22;7658;51.456;7.622;2022-11-25T16:55:04;9.00;99.90
15115;DHT22;7658;51.456;7.622;2022-11-25T16:57:32;9.00;99.90
15115;DHT22;7658;51.456;7.622;2022-11-25T16:59:59;9.00;99.90
15115;DHT22;7658;51.456;7.622;2022-11-25T17:02:32;9.10;99.90
15115;DHT22;7658;51.456;7.622;2022-11-25T17:05:03;9.10;99.90
15115;DHT22;7658;51.456;7.622;2022-11-25T17:07:31;9.10;99.90
15115;DHT22;7658;51.456;7.622;2022-11-25T17:09:57;9.10;99.90
15115;DHT22;7658;51.456;7.622;2022-11-25T17:12:27;9.10;99.90
15115;DHT22;7658;51.456;7.622;2022-11-25T17:14:54;9.10;99.90
15115;DHT22;7658;51.456;7.622;2022-11-25T17:17:22;9.10;99.90
15115;DHT22;7658;51.456;7.622;2022-11-25T17:19:49;9.10;99.90
15115;DHT22;7658;51.456;7.622;2022-11-25T17:22:18;9.10;99.90
15115;DHT22;7658;51.456;7.622;2022-11-25T17:24:43;9.10;99.90
15115;DHT22;7658;51.456;7.622;2022-11-25T17:29:46;9.10;99.90
15115;DHT22;7658;51.456;7.622;2022-11-25T17:32:12;9.10;99.90
15115;DHT22;7658;51.456;7.622;2022-11-25T17:34:39;9.10;99.90
15115;DHT22;7658;51.456;7.622;2022-11-25T17:37:15;9.10;99.90
15115;DHT22;7658;51.456;7.622;2022-11-25T17:39:42;9.10;99.90
15115;DHT22;7658;51.456;7.622;2022-11-25T17:42:13;9.10;99.90
15115;DHT22;7658;51.456;7.622;2022-11-25T17:44:40;9.20;99.90
15115;DHT22;7658;51.456;7.622;2022-11-25T17:47:11;9.20;99.90
15115;DHT22;7658;51.456;7.622;2022-11-25T17:49:37;9.20;99.90
15115;DHT22;7658;51.456;7.622;2022-11-25T17:52:03;9.10;99.90
15115;DHT22;7658;51.456;7.622;2022-11-25T17:54:29;9.00;99.90
15115;DHT22;7658;51.456;7.622;2022-11-25T17:56:58;8.90;99.90
15115;DHT22;7658;51.456;7.622;2022-11-25T17:59:29;8.80;99.90
15115;DHT22;7658;51.456;7.622;2022-11-25T18:01:56;8.70;99.90
15115;DHT22;7658;51.456;7.622;2022-11-25T18:04:30;8.70;99.90
15115;DHT22;7658;51.456;7.622;2022-11-25T18:06:56;8.70;99.90
15115;DHT22;7658;51.456;7.622;2022-11-25T18:09:22;8.60;99.90
15115;DHT22;7658;51.456;7.622;2022-11-25T18:11:51;8.60;99.90
15115;DHT22;7658;51.456;7.622;2022-11-25T18:14:31;8.60;99.90
15115;DHT22;7658;51.456;7.622;2022-11-25T18:17:00;8.60;99.90
15115;DHT22;7658;51.456;7.622;2022-11-25T18:19:26;8.50;99.90
15115;DHT22;7658;51.456;7.622;2022-11-25T18:21:58;8.50;99.90
15115;DHT22;7658;51.456;7.622;2022-11-25T18:24:24;8.40;99.90
15115;DHT22;7658;51.456;7.622;2022-11-25T18:26:51;8.40;99.90
15115;DHT22;7658;51.456;7.622;2022-11-25T18:29:23;8.40;99.90